createdAt,value
2019-05-12T00:00:01.103Z,1021.96
2019-05-12T00:05:01.062Z,1022.04
2019-05-12T00:10:01.057Z,1022.04
2019-05-12T00:15:01.221Z,1022.15
2019-05-12T00:25:01.218Z,1022.13
2019-05-12T00:30:01.125Z,1022.13
2019-05-12T00:35:08.216Z,1022.31
2019-05-12T00:45:01.381Z,1022.22
2019-05-12T00:50:07.993Z,1022.22
2019-05-12T00:55:01.223Z,1022.44
2019-05-12T01:00:01.866Z,1022.44
2019-05-12T01:15:01.247Z,1022.63
2019-05-12T01:30:01.887Z,1022.75
2019-05-12T01:45:06.216Z,1022.89
2019-05-12T01:50:01.199Z,1022.89
2019-05-12T02:00:01.340Z,1023.01
2019-05-12T02:05:01.211Z,1023.14
2019-05-12T02:15:01.328Z,1023.37
2019-05-12T02:30:01.291Z,1023.52
2019-05-12T02:45:01.373Z,1023.87
2019-05-12T03:00:04.575Z,1023.99
2019-05-12T03:10:05.579Z,1024.14
2019-05-12T03:15:01.338Z,1024.14
2019-05-12T03:20:05.479Z,1024.14
2019-05-12T03:30:19.104Z,1024.19
2019-05-12T03:45:05.198Z,1024.36
2019-05-12T04:00:01.986Z,1024.47
2019-05-12T04:10:04.686Z,1024.64
2019-05-12T04:25:01.320Z,1025.01
2019-05-12T04:30:01.405Z,1025.01
2019-05-12T04:40:01.364Z,1025.09
2019-05-12T04:50:01.336Z,1025.20
2019-05-12T04:55:05.318Z,1025.38
2019-05-12T05:00:05.398Z,1025.38
2019-05-12T05:05:01.472Z,1025.39
2019-05-12T05:15:01.407Z,1025.42
2019-05-12T05:20:01.349Z,1025.42
2019-05-12T05:25:04.740Z,1025.54
2019-05-12T05:30:04.414Z,1025.54
2019-05-12T05:35:07.924Z,1025.71
2019-05-12T05:40:04.301Z,1025.71
2019-05-12T05:45:01.359Z,1025.76
2019-05-12T05:50:01.366Z,1025.76
2019-05-12T05:55:19.824Z,1025.89
2019-05-12T06:00:26.055Z,1025.89
2019-05-12T06:05:04.130Z,1025.97
2019-05-12T06:10:01.245Z,1025.97
2019-05-12T06:15:03.998Z,1026.02
2019-05-12T06:20:01.222Z,1026.02
2019-05-12T06:25:05.192Z,1026.24
2019-05-12T06:30:06.735Z,1026.24
2019-05-12T06:35:04.645Z,1026.32
2019-05-12T06:40:03.768Z,1026.32
2019-05-12T06:45:04.099Z,1026.30
2019-05-12T06:50:03.666Z,1026.30
2019-05-12T06:55:04.231Z,1026.38
2019-05-12T07:00:01.467Z,1026.38
2019-05-12T07:05:04.114Z,1026.43
2019-05-12T07:10:12.998Z,1026.43
2019-05-12T07:15:04.305Z,1026.55
2019-05-12T07:20:01.256Z,1026.55
2019-05-12T07:25:01.388Z,1026.48
2019-05-12T07:30:01.380Z,1026.48
2019-05-12T07:35:04.064Z,1026.57
2019-05-12T07:40:01.311Z,1026.57
2019-05-12T07:45:04.284Z,1026.66
2019-05-12T07:50:16.014Z,1026.66
2019-05-12T07:55:01.379Z,1026.62
2019-05-12T08:00:03.952Z,1026.62
2019-05-12T08:05:04.026Z,1026.76
2019-05-12T08:10:01.283Z,1026.76
2019-05-12T08:15:10.040Z,1026.76
2019-05-12T08:20:01.273Z,1026.76
2019-05-12T08:25:01.347Z,1026.82
2019-05-12T08:30:06.445Z,1026.82
2019-05-12T08:35:01.551Z,1026.93
2019-05-12T08:40:07.589Z,1026.93
2019-05-12T08:45:08.427Z,1026.82
2019-05-12T08:50:01.271Z,1026.82
2019-05-12T08:55:01.416Z,1027.05
2019-05-12T09:00:09.078Z,1027.05
2019-05-12T09:05:04.421Z,1027.06
2019-05-12T09:15:01.529Z,1027.11
2019-05-12T09:20:08.690Z,1027.11
2019-05-12T09:25:08.553Z,1027.30
2019-05-12T09:30:10.083Z,1027.30
2019-05-12T09:35:04.164Z,1027.33
2019-05-12T09:40:01.274Z,1027.33
2019-05-12T09:45:10.787Z,1027.52
2019-05-12T09:50:01.268Z,1027.52
2019-05-12T09:55:01.390Z,1027.47
2019-05-12T10:00:01.434Z,1027.47
2019-05-12T10:05:04.098Z,1027.57
2019-05-12T10:15:01.481Z,1027.66
2019-05-12T10:30:16.788Z,1027.69
2019-05-12T10:35:01.340Z,1027.70
2019-05-12T10:40:03.814Z,1027.70
2019-05-12T10:45:04.578Z,1027.71
2019-05-12T10:50:02.459Z,1027.71
2019-05-12T10:55:01.401Z,1027.82
2019-05-12T11:00:04.320Z,1027.82
2019-05-12T11:05:01.435Z,1027.73
2019-05-12T11:10:16.196Z,1027.73
2019-05-12T11:15:08.804Z,1027.89
2019-05-12T11:20:04.271Z,1027.89
2019-05-12T11:25:04.616Z,1027.93
2019-05-12T11:30:04.056Z,1027.93
2019-05-12T11:35:03.848Z,1028.02
2019-05-12T11:40:01.321Z,1028.02
2019-05-12T11:45:01.524Z,1028.13
2019-05-12T11:55:01.486Z,1028.11
2019-05-12T12:00:05.593Z,1028.11
2019-05-12T12:15:01.520Z,1028.34
2019-05-12T12:20:03.900Z,1028.34
2019-05-12T12:30:20.233Z,1028.41
2019-05-12T12:35:11.966Z,1028.47
2019-05-12T12:40:01.299Z,1028.47
2019-05-12T12:45:04.617Z,1028.66
2019-05-12T12:50:01.297Z,1028.66
2019-05-12T12:55:08.475Z,1028.67
2019-05-12T13:00:04.081Z,1028.67
2019-05-12T13:10:09.380Z,1028.89
2019-05-12T13:15:04.166Z,1028.93
2019-05-12T13:25:08.649Z,1028.94
2019-05-12T13:30:05.702Z,1028.94
2019-05-12T13:35:01.430Z,1029.07
2019-05-12T13:40:01.304Z,1029.07
2019-05-12T13:45:03.960Z,1029.08
2019-05-12T13:50:04.099Z,1029.08
2019-05-12T13:55:07.699Z,1029.12
2019-05-12T14:00:11.769Z,1029.12
2019-05-12T14:10:03.914Z,1029.20
2019-05-12T14:15:01.593Z,1029.33
2019-05-12T14:25:02.476Z,1029.45
2019-05-12T14:30:14.583Z,1029.45
2019-05-12T14:35:01.409Z,1029.61
2019-05-12T14:40:01.336Z,1029.61
2019-05-12T14:45:01.584Z,1029.67
2019-05-12T14:50:04.205Z,1029.67
2019-05-12T14:55:03.598Z,1029.75
2019-05-12T15:00:04.366Z,1029.75
2019-05-12T15:15:14.432Z,1029.84
2019-05-12T15:20:10.686Z,1029.84
2019-05-12T15:25:05.638Z,1029.88
2019-05-12T15:30:03.977Z,1029.88
2019-05-12T15:35:01.389Z,1030.05
2019-05-12T15:45:11.573Z,1030.00
2019-05-12T16:10:04.454Z,1030.37
2019-05-12T16:20:03.847Z,1030.42
2019-05-12T16:25:04.523Z,1030.49
2019-05-12T16:30:01.566Z,1030.49
2019-05-12T16:35:07.832Z,1030.68
2019-05-12T16:45:10.480Z,1030.76
2019-05-12T16:50:25.292Z,1030.76
2019-05-12T17:00:07.449Z,1030.89
2019-05-12T17:05:20.620Z,1031.08
2019-05-12T17:10:16.809Z,1031.08
2019-05-12T17:15:04.232Z,1031.05
2019-05-12T17:20:01.449Z,1031.05
2019-05-12T17:25:05.437Z,1031.27
2019-05-12T17:35:04.502Z,1031.45
2019-05-12T17:45:04.187Z,1031.69
2019-05-12T17:50:10.662Z,1031.69
2019-05-12T17:55:11.025Z,1031.83
2019-05-12T18:00:11.022Z,1031.83
2019-05-12T18:05:15.869Z,1031.97
2019-05-12T18:10:01.501Z,1031.97
2019-05-12T18:15:04.694Z,1032.05
2019-05-12T18:25:04.652Z,1032.08
2019-05-12T18:30:04.617Z,1032.08
2019-05-12T18:35:04.022Z,1032.16
2019-05-12T18:40:04.411Z,1032.16
2019-05-12T18:45:17.501Z,1032.16
2019-05-12T18:50:01.525Z,1032.16
2019-05-12T18:55:01.528Z,1032.28
2019-05-12T19:00:07.560Z,1032.28
2019-05-12T19:05:01.533Z,1032.44
2019-05-12T19:10:04.023Z,1032.44
2019-05-12T19:15:01.527Z,1032.51
2019-05-12T19:20:02.057Z,1032.51
2019-05-12T19:25:04.224Z,1032.72
2019-05-12T19:30:01.535Z,1032.72
2019-05-12T19:35:04.175Z,1032.84
2019-05-12T19:40:16.671Z,1032.84
2019-05-12T19:45:21.921Z,1032.97
2019-05-12T19:50:18.388Z,1032.97
2019-05-12T19:55:04.144Z,1033.01
2019-05-12T20:00:01.610Z,1033.01
2019-05-12T20:05:05.064Z,1033.06
2019-05-12T20:10:01.529Z,1033.06
2019-05-12T20:15:04.226Z,1033.06
2019-05-12T20:20:05.165Z,1033.06
2019-05-12T20:25:04.562Z,1033.21
2019-05-12T20:30:18.879Z,1033.21
2019-05-12T20:35:03.972Z,1033.38
2019-05-12T20:45:05.653Z,1033.45
2019-05-12T20:50:04.555Z,1033.45
2019-05-12T20:55:03.966Z,1033.42
2019-05-12T21:00:08.053Z,1033.42
2019-05-12T21:05:14.379Z,1033.53
2019-05-12T21:10:04.261Z,1033.53
2019-05-12T21:25:04.279Z,1033.60
2019-05-12T21:30:11.901Z,1033.60
2019-05-12T21:40:06.161Z,1033.60
2019-05-12T21:45:04.835Z,1033.67
2019-05-12T21:55:06.588Z,1033.88
2019-05-12T22:00:01.461Z,1033.88
2019-05-12T22:10:01.574Z,1033.94
2019-05-12T22:15:03.938Z,1034.00
2019-05-12T22:20:19.312Z,1034.00
2019-05-12T22:25:01.570Z,1034.09
2019-05-12T22:30:01.418Z,1034.09
2019-05-12T22:35:04.067Z,1034.19
2019-05-12T22:45:05.757Z,1034.29
2019-05-12T23:00:04.190Z,1034.29
2019-05-12T23:11:04.037Z,1034.35
2019-05-12T23:26:02.323Z,1034.50
2019-05-12T23:41:01.469Z,1034.48
2019-05-12T23:51:04.121Z,1034.53
